sensor_id;sensor_type;location;lat;lon;timestamp;P1;durP1;ratioP1;P2;durP2;ratioP2
6751;SDS011;3413;47.680;9.166;2023-06-10T00:00:54;7.73;;;3.00;;
6751;SDS011;3413;47.680;9.166;2023-06-10T00:05:57;7.53;;;3.47;;
6751;SDS011;3413;47.680;9.166;2023-06-10T00:10:59;5.10;;;2.70;;
6751;SDS011;3413;47.680;9.166;2023-06-10T00:16:01;7.90;;;3.60;;
6751;SDS011;3413;47.680;9.166;2023-06-10T00:21:09;6.13;;;3.30;;
6751;SDS011;3413;47.680;9.166;2023-06-10T00:26:11;7.47;;;3.60;;
6751;SDS011;3413;47.680;9.166;2023-06-10T00:31:14;5.60;;;3.00;;
6751;SDS011;3413;47.680;9.166;2023-06-10T00:36:17;8.77;;;3.33;;
6751;SDS011;3413;47.680;9.166;2023-06-10T00:41:19;3.90;;;2.90;;
6751;SDS011;3413;47.680;9.166;2023-06-10T00:46:21;4.43;;;2.83;;
6751;SDS011;3413;47.680;9.166;2023-06-10T00:51:26;4.80;;;2.90;;
6751;SDS011;3413;47.680;9.166;2023-06-10T00:56:29;5.60;;;3.07;;
6751;SDS011;3413;47.680;9.166;2023-06-10T01:01:31;5.40;;;2.67;;
6751;SDS011;3413;47.680;9.166;2023-06-10T01:12:20;7.27;;;3.57;;
6751;SDS011;3413;47.680;9.166;2023-06-10T01:17:27;6.17;;;3.20;;
6751;SDS011;3413;47.680;9.166;2023-06-10T01:22:31;5.50;;;3.23;;
6751;SDS011;3413;47.680;9.166;2023-06-10T01:27:34;5.53;;;3.33;;
6751;SDS011;3413;47.680;9.166;2023-06-10T01:32:43;5.20;;;3.00;;
6751;SDS011;3413;47.680;9.166;2023-06-10T01:37:49;7.13;;;3.80;;
6751;SDS011;3413;47.680;9.166;2023-06-10T01:42:55;11.60;;;4.20;;
6751;SDS011;3413;47.680;9.166;2023-06-10T01:47:57;5.90;;;3.33;;
6751;SDS011;3413;47.680;9.166;2023-06-10T01:53:00;5.33;;;3.13;;
6751;SDS011;3413;47.680;9.166;2023-06-10T01:58:02;10.33;;;3.50;;
6751;SDS011;3413;47.680;9.166;2023-06-10T02:03:04;6.00;;;3.60;;
6751;SDS011;3413;47.680;9.166;2023-06-10T02:08:06;9.20;;;3.50;;
6751;SDS011;3413;47.680;9.166;2023-06-10T02:13:08;7.43;;;3.33;;
6751;SDS011;3413;47.680;9.166;2023-06-10T02:18:10;6.20;;;3.53;;
6751;SDS011;3413;47.680;9.166;2023-06-10T02:23:13;7.80;;;3.80;;
6751;SDS011;3413;47.680;9.166;2023-06-10T02:28:15;7.77;;;3.30;;
6751;SDS011;3413;47.680;9.166;2023-06-10T02:33:17;7.20;;;4.10;;
6751;SDS011;3413;47.680;9.166;2023-06-10T02:38:19;6.70;;;3.33;;
6751;SDS011;3413;47.680;9.166;2023-06-10T02:43:22;9.90;;;4.37;;
6751;SDS011;3413;47.680;9.166;2023-06-10T02:48:25;10.63;;;3.77;;
6751;SDS011;3413;47.680;9.166;2023-06-10T02:53:30;8.50;;;4.57;;
6751;SDS011;3413;47.680;9.166;2023-06-10T02:58:38;5.73;;;3.57;;
6751;SDS011;3413;47.680;9.166;2023-06-10T03:03:42;8.10;;;4.20;;
6751;SDS011;3413;47.680;9.166;2023-06-10T03:08:47;6.90;;;4.07;;
6751;SDS011;3413;47.680;9.166;2023-06-10T03:13:52;14.40;;;4.57;;
6751;SDS011;3413;47.680;9.166;2023-06-10T03:18:56;8.60;;;3.90;;
6751;SDS011;3413;47.680;9.166;2023-06-10T03:23:58;8.20;;;3.90;;
6751;SDS011;3413;47.680;9.166;2023-06-10T03:29:00;7.00;;;4.37;;
6751;SDS011;3413;47.680;9.166;2023-06-10T03:34:03;10.67;;;5.00;;
6751;SDS011;3413;47.680;9.166;2023-06-10T03:39:05;11.60;;;4.33;;
6751;SDS011;3413;47.680;9.166;2023-06-10T03:44:07;6.67;;;3.90;;
6751;SDS011;3413;47.680;9.166;2023-06-10T03:49:09;7.33;;;3.63;;
6751;SDS011;3413;47.680;9.166;2023-06-10T03:54:12;7.23;;;4.00;;
6751;SDS011;3413;47.680;9.166;2023-06-10T03:59:14;7.60;;;4.73;;
6751;SDS011;3413;47.680;9.166;2023-06-10T04:04:16;7.87;;;4.33;;
6751;SDS011;3413;47.680;9.166;2023-06-10T04:09:19;10.33;;;4.33;;
6751;SDS011;3413;47.680;9.166;2023-06-10T04:14:21;9.50;;;4.37;;
6751;SDS011;3413;47.680;9.166;2023-06-10T04:19:23;8.70;;;4.97;;
6751;SDS011;3413;47.680;9.166;2023-06-10T04:24:26;10.00;;;4.03;;
6751;SDS011;3413;47.680;9.166;2023-06-10T04:29:29;11.20;;;4.57;;
6751;SDS011;3413;47.680;9.166;2023-06-10T04:34:36;7.97;;;3.80;;
6751;SDS011;3413;47.680;9.166;2023-06-10T04:39:41;8.03;;;3.67;;
6751;SDS011;3413;47.680;9.166;2023-06-10T04:44:43;8.43;;;4.67;;
6751;SDS011;3413;47.680;9.166;2023-06-10T04:49:45;7.33;;;4.47;;
6751;SDS011;3413;47.680;9.166;2023-06-10T04:54:47;7.73;;;4.57;;
6751;SDS011;3413;47.680;9.166;2023-06-10T04:59:49;7.73;;;4.67;;
6751;SDS011;3413;47.680;9.166;2023-06-10T05:04:51;8.40;;;4.27;;
6751;SDS011;3413;47.680;9.166;2023-06-10T05:09:54;10.50;;;4.43;;
6751;SDS011;3413;47.680;9.166;2023-06-10T05:14:56;12.93;;;5.00;;
6751;SDS011;3413;47.680;9.166;2023-06-10T05:19:58;8.37;;;4.70;;
6751;SDS011;3413;47.680;9.166;2023-06-10T05:25:00;9.13;;;4.70;;
6751;SDS011;3413;47.680;9.166;2023-06-10T05:30:02;8.37;;;4.40;;
6751;SDS011;3413;47.680;9.166;2023-06-10T05:35:05;7.00;;;4.20;;
6751;SDS011;3413;47.680;9.166;2023-06-10T05:40:08;6.67;;;4.33;;
6751;SDS011;3413;47.680;9.166;2023-06-10T05:45:10;8.83;;;4.43;;
6751;SDS011;3413;47.680;9.166;2023-06-10T05:50:12;9.97;;;4.10;;
6751;SDS011;3413;47.680;9.166;2023-06-10T05:55:14;7.57;;;3.90;;
6751;SDS011;3413;47.680;9.166;2023-06-10T06:00:16;7.40;;;4.33;;
6751;SDS011;3413;47.680;9.166;2023-06-10T06:05:19;6.90;;;4.23;;
6751;SDS011;3413;47.680;9.166;2023-06-10T06:10:21;16.10;;;4.57;;
6751;SDS011;3413;47.680;9.166;2023-06-10T06:15:23;7.60;;;4.90;;
6751;SDS011;3413;47.680;9.166;2023-06-10T06:20:25;9.67;;;4.60;;
6751;SDS011;3413;47.680;9.166;2023-06-10T06:25:27;9.43;;;4.70;;
6751;SDS011;3413;47.680;9.166;2023-06-10T06:30:29;9.40;;;5.20;;
6751;SDS011;3413;47.680;9.166;2023-06-10T06:35:32;7.90;;;4.33;;
6751;SDS011;3413;47.680;9.166;2023-06-10T06:40:35;8.73;;;5.03;;
6751;SDS011;3413;47.680;9.166;2023-06-10T06:45:37;8.57;;;4.53;;
6751;SDS011;3413;47.680;9.166;2023-06-10T06:50:39;8.60;;;4.33;;
6751;SDS011;3413;47.680;9.166;2023-06-10T06:55:43;9.10;;;4.77;;
6751;SDS011;3413;47.680;9.166;2023-06-10T07:00:45;9.03;;;4.33;;
6751;SDS011;3413;47.680;9.166;2023-06-10T07:05:47;19.70;;;4.63;;
6751;SDS011;3413;47.680;9.166;2023-06-10T07:10:48;10.50;;;4.80;;
6751;SDS011;3413;47.680;9.166;2023-06-10T07:15:51;11.53;;;5.50;;
6751;SDS011;3413;47.680;9.166;2023-06-10T07:20:53;10.67;;;5.10;;
6751;SDS011;3413;47.680;9.166;2023-06-10T07:25:55;9.40;;;4.73;;
6751;SDS011;3413;47.680;9.166;2023-06-10T07:30:57;10.23;;;4.83;;
6751;SDS011;3413;47.680;9.166;2023-06-10T07:35:59;7.37;;;4.33;;
6751;SDS011;3413;47.680;9.166;2023-06-10T07:41:01;10.27;;;5.17;;
6751;SDS011;3413;47.680;9.166;2023-06-10T07:46:03;8.67;;;5.27;;
6751;SDS011;3413;47.680;9.166;2023-06-10T07:51:06;8.17;;;4.73;;
6751;SDS011;3413;47.680;9.166;2023-06-10T07:56:08;10.00;;;5.30;;
6751;SDS011;3413;47.680;9.166;2023-06-10T08:01:10;7.43;;;4.83;;
6751;SDS011;3413;47.680;9.166;2023-06-10T08:06:12;9.87;;;4.93;;
6751;SDS011;3413;47.680;9.166;2023-06-10T08:11:15;14.83;;;5.57;;
6751;SDS011;3413;47.680;9.166;2023-06-10T08:16:17;6.70;;;4.70;;
6751;SDS011;3413;47.680;9.166;2023-06-10T08:21:19;9.53;;;4.93;;
6751;SDS011;3413;47.680;9.166;2023-06-10T08:26:21;9.10;;;4.53;;
6751;SDS011;3413;47.680;9.166;2023-06-10T08:31:23;9.90;;;5.20;;
6751;SDS011;3413;47.680;9.166;2023-06-10T08:36:25;9.47;;;4.97;;
6751;SDS011;3413;47.680;9.166;2023-06-10T08:41:28;8.63;;;4.60;;
6751;SDS011;3413;47.680;9.166;2023-06-10T08:46:31;9.60;;;4.97;;
6751;SDS011;3413;47.680;9.166;2023-06-10T08:51:34;10.63;;;5.10;;
6751;SDS011;3413;47.680;9.166;2023-06-10T08:56:40;10.40;;;4.70;;
6751;SDS011;3413;47.680;9.166;2023-06-10T09:01:46;11.63;;;5.40;;
6751;SDS011;3413;47.680;9.166;2023-06-10T09:06:49;8.80;;;5.07;;
6751;SDS011;3413;47.680;9.166;2023-06-10T09:11:51;9.50;;;5.07;;
6751;SDS011;3413;47.680;9.166;2023-06-10T09:16:53;7.60;;;4.77;;
6751;SDS011;3413;47.680;9.166;2023-06-10T09:21:58;8.20;;;4.30;;
6751;SDS011;3413;47.680;9.166;2023-06-10T09:27:07;10.17;;;4.83;;
6751;SDS011;3413;47.680;9.166;2023-06-10T09:32:10;9.93;;;5.00;;
6751;SDS011;3413;47.680;9.166;2023-06-10T09:37:12;13.83;;;5.00;;
6751;SDS011;3413;47.680;9.166;2023-06-10T09:42:15;9.30;;;4.83;;
6751;SDS011;3413;47.680;9.166;2023-06-10T09:47:20;11.93;;;4.50;;
6751;SDS011;3413;47.680;9.166;2023-06-10T09:52:24;11.40;;;5.03;;
6751;SDS011;3413;47.680;9.166;2023-06-10T09:57:32;9.60;;;4.50;;
6751;SDS011;3413;47.680;9.166;2023-06-10T10:02:45;7.97;;;4.30;;
6751;SDS011;3413;47.680;9.166;2023-06-10T10:07:51;8.10;;;3.57;;
6751;SDS011;3413;47.680;9.166;2023-06-10T10:12:54;10.13;;;4.10;;
6751;SDS011;3413;47.680;9.166;2023-06-10T10:23:07;8.17;;;4.30;;
6751;SDS011;3413;47.680;9.166;2023-06-10T10:28:11;8.93;;;4.40;;
6751;SDS011;3413;47.680;9.166;2023-06-10T10:33:18;9.13;;;4.60;;
6751;SDS011;3413;47.680;9.166;2023-06-10T10:38:24;6.47;;;3.63;;
6751;SDS011;3413;47.680;9.166;2023-06-10T10:43:26;7.00;;;3.97;;
6751;SDS011;3413;47.680;9.166;2023-06-10T10:48:33;6.30;;;3.50;;
6751;SDS011;3413;47.680;9.166;2023-06-10T10:53:38;13.50;;;4.50;;
6751;SDS011;3413;47.680;9.166;2023-06-10T10:58:41;5.80;;;3.93;;
6751;SDS011;3413;47.680;9.166;2023-06-10T11:03:43;6.70;;;4.10;;
6751;SDS011;3413;47.680;9.166;2023-06-10T11:08:49;7.67;;;4.13;;
6751;SDS011;3413;47.680;9.166;2023-06-10T11:19:08;7.70;;;3.70;;
6751;SDS011;3413;47.680;9.166;2023-06-10T11:24:13;7.47;;;3.50;;
6751;SDS011;3413;47.680;9.166;2023-06-10T11:29:15;7.50;;;3.57;;
6751;SDS011;3413;47.680;9.166;2023-06-10T11:34:22;8.40;;;3.60;;
6751;SDS011;3413;47.680;9.166;2023-06-10T11:39:26;7.47;;;4.00;;
6751;SDS011;3413;47.680;9.166;2023-06-10T11:44:28;5.87;;;3.57;;
6751;SDS011;3413;47.680;9.166;2023-06-10T11:49:30;5.77;;;3.73;;
6751;SDS011;3413;47.680;9.166;2023-06-10T11:54:32;8.23;;;3.70;;
6751;SDS011;3413;47.680;9.166;2023-06-10T11:59:34;6.20;;;3.80;;
6751;SDS011;3413;47.680;9.166;2023-06-10T12:04:36;7.67;;;4.40;;
6751;SDS011;3413;47.680;9.166;2023-06-10T12:09:38;10.70;;;3.80;;
6751;SDS011;3413;47.680;9.166;2023-06-10T12:14:50;12.07;;;3.83;;
6751;SDS011;3413;47.680;9.166;2023-06-10T12:19:57;8.10;;;3.30;;
6751;SDS011;3413;47.680;9.166;2023-06-10T12:25:00;5.53;;;3.37;;
6751;SDS011;3413;47.680;9.166;2023-06-10T12:30:05;6.13;;;3.20;;
6751;SDS011;3413;47.680;9.166;2023-06-10T12:35:08;5.57;;;2.80;;
6751;SDS011;3413;47.680;9.166;2023-06-10T12:40:12;5.77;;;3.43;;
6751;SDS011;3413;47.680;9.166;2023-06-10T12:45:14;8.53;;;3.23;;
6751;SDS011;3413;47.680;9.166;2023-06-10T12:50:27;4.97;;;3.07;;
6751;SDS011;3413;47.680;9.166;2023-06-10T12:55:29;6.33;;;3.20;;
6751;SDS011;3413;47.680;9.166;2023-06-10T13:00:31;6.80;;;3.23;;
6751;SDS011;3413;47.680;9.166;2023-06-10T13:05:36;5.10;;;2.37;;
6751;SDS011;3413;47.680;9.166;2023-06-10T13:10:40;6.13;;;2.90;;
6751;SDS011;3413;47.680;9.166;2023-06-10T13:15:42;4.33;;;2.87;;
6751;SDS011;3413;47.680;9.166;2023-06-10T13:20:44;4.53;;;2.83;;
6751;SDS011;3413;47.680;9.166;2023-06-10T13:25:46;4.83;;;3.10;;
6751;SDS011;3413;47.680;9.166;2023-06-10T13:30:48;6.00;;;2.87;;
6751;SDS011;3413;47.680;9.166;2023-06-10T13:35:51;8.30;;;2.87;;
6751;SDS011;3413;47.680;9.166;2023-06-10T13:40:53;6.97;;;3.10;;
6751;SDS011;3413;47.680;9.166;2023-06-10T13:45:55;8.33;;;3.13;;
6751;SDS011;3413;47.680;9.166;2023-06-10T13:50:57;6.80;;;2.63;;
6751;SDS011;3413;47.680;9.166;2023-06-10T13:56:00;4.37;;;2.23;;
6751;SDS011;3413;47.680;9.166;2023-06-10T14:01:03;6.00;;;2.30;;
6751;SDS011;3413;47.680;9.166;2023-06-10T14:06:04;6.33;;;2.33;;
6751;SDS011;3413;47.680;9.166;2023-06-10T14:11:07;3.83;;;2.07;;
6751;SDS011;3413;47.680;9.166;2023-06-10T14:16:09;6.10;;;2.37;;
6751;SDS011;3413;47.680;9.166;2023-06-10T14:21:11;6.50;;;2.50;;
6751;SDS011;3413;47.680;9.166;2023-06-10T14:26:13;8.77;;;4.20;;
6751;SDS011;3413;47.680;9.166;2023-06-10T14:31:16;4.63;;;1.93;;
6751;SDS011;3413;47.680;9.166;2023-06-10T14:36:18;4.67;;;2.00;;
6751;SDS011;3413;47.680;9.166;2023-06-10T14:41:20;4.10;;;2.10;;
6751;SDS011;3413;47.680;9.166;2023-06-10T14:46:23;3.30;;;1.70;;
6751;SDS011;3413;47.680;9.166;2023-06-10T14:51:25;6.60;;;2.17;;
6751;SDS011;3413;47.680;9.166;2023-06-10T14:56:27;3.77;;;1.80;;
6751;SDS011;3413;47.680;9.166;2023-06-10T15:01:30;3.60;;;1.73;;
6751;SDS011;3413;47.680;9.166;2023-06-10T15:06:32;2.83;;;1.63;;
6751;SDS011;3413;47.680;9.166;2023-06-10T15:11:34;3.70;;;1.60;;
6751;SDS011;3413;47.680;9.166;2023-06-10T15:16:36;5.90;;;2.03;;
6751;SDS011;3413;47.680;9.166;2023-06-10T15:21:38;2.70;;;1.57;;
6751;SDS011;3413;47.680;9.166;2023-06-10T15:26:41;4.80;;;1.87;;
6751;SDS011;3413;47.680;9.166;2023-06-10T15:31:43;3.70;;;1.50;;
6751;SDS011;3413;47.680;9.166;2023-06-10T15:36:45;4.17;;;1.70;;
6751;SDS011;3413;47.680;9.166;2023-06-10T15:41:47;4.27;;;2.30;;
6751;SDS011;3413;47.680;9.166;2023-06-10T15:46:48;4.70;;;1.97;;
6751;SDS011;3413;47.680;9.166;2023-06-10T15:51:51;4.23;;;2.13;;
6751;SDS011;3413;47.680;9.166;2023-06-10T15:56:53;3.00;;;1.87;;
6751;SDS011;3413;47.680;9.166;2023-06-10T16:01:55;5.67;;;2.60;;
6751;SDS011;3413;47.680;9.166;2023-06-10T16:06:57;3.90;;;1.80;;
6751;SDS011;3413;47.680;9.166;2023-06-10T16:11:59;4.60;;;1.73;;
6751;SDS011;3413;47.680;9.166;2023-06-10T16:17:01;7.07;;;2.10;;
6751;SDS011;3413;47.680;9.166;2023-06-10T16:22:03;4.73;;;2.10;;
6751;SDS011;3413;47.680;9.166;2023-06-10T16:27:05;3.93;;;2.57;;
6751;SDS011;3413;47.680;9.166;2023-06-10T16:32:11;2.67;;;1.67;;
6751;SDS011;3413;47.680;9.166;2023-06-10T16:37:13;7.97;;;2.10;;
6751;SDS011;3413;47.680;9.166;2023-06-10T16:42:15;3.00;;;1.60;;
6751;SDS011;3413;47.680;9.166;2023-06-10T16:47:17;3.60;;;2.00;;
6751;SDS011;3413;47.680;9.166;2023-06-10T16:52:19;3.37;;;1.80;;
6751;SDS011;3413;47.680;9.166;2023-06-10T16:57:21;2.60;;;1.60;;
6751;SDS011;3413;47.680;9.166;2023-06-10T17:02:23;3.70;;;2.03;;
6751;SDS011;3413;47.680;9.166;2023-06-10T17:07:27;3.90;;;2.03;;
6751;SDS011;3413;47.680;9.166;2023-06-10T17:12:30;5.53;;;3.13;;
6751;SDS011;3413;47.680;9.166;2023-06-10T17:17:32;3.43;;;1.83;;
6751;SDS011;3413;47.680;9.166;2023-06-10T17:22:35;5.37;;;2.57;;
6751;SDS011;3413;47.680;9.166;2023-06-10T17:27:37;6.20;;;2.50;;
6751;SDS011;3413;47.680;9.166;2023-06-10T17:32:39;6.73;;;3.57;;
6751;SDS011;3413;47.680;9.166;2023-06-10T17:37:41;4.83;;;2.23;;
6751;SDS011;3413;47.680;9.166;2023-06-10T17:42:43;4.00;;;2.20;;
6751;SDS011;3413;47.680;9.166;2023-06-10T17:47:45;5.07;;;2.87;;
6751;SDS011;3413;47.680;9.166;2023-06-10T17:52:47;4.03;;;2.37;;
6751;SDS011;3413;47.680;9.166;2023-06-10T17:57:49;5.33;;;2.97;;
6751;SDS011;3413;47.680;9.166;2023-06-10T18:02:51;13.53;;;3.40;;
6751;SDS011;3413;47.680;9.166;2023-06-10T18:07:54;5.27;;;2.90;;
6751;SDS011;3413;47.680;9.166;2023-06-10T18:12:56;4.83;;;2.40;;
6751;SDS011;3413;47.680;9.166;2023-06-10T18:17:58;4.03;;;2.10;;
6751;SDS011;3413;47.680;9.166;2023-06-10T18:23:00;9.30;;;3.30;;
6751;SDS011;3413;47.680;9.166;2023-06-10T18:28:03;4.80;;;2.63;;
6751;SDS011;3413;47.680;9.166;2023-06-10T18:33:05;9.13;;;3.00;;
6751;SDS011;3413;47.680;9.166;2023-06-10T18:38:07;5.30;;;2.47;;
6751;SDS011;3413;47.680;9.166;2023-06-10T18:43:09;5.67;;;2.93;;
6751;SDS011;3413;47.680;9.166;2023-06-10T18:48:12;4.60;;;2.70;;
6751;SDS011;3413;47.680;9.166;2023-06-10T18:53:14;8.10;;;3.37;;
6751;SDS011;3413;47.680;9.166;2023-06-10T18:58:16;6.83;;;3.13;;
6751;SDS011;3413;47.680;9.166;2023-06-10T19:03:18;5.30;;;2.67;;
6751;SDS011;3413;47.680;9.166;2023-06-10T19:08:20;3.87;;;2.37;;
6751;SDS011;3413;47.680;9.166;2023-06-10T19:13:22;4.63;;;2.90;;
6751;SDS011;3413;47.680;9.166;2023-06-10T19:18:25;6.40;;;3.03;;
6751;SDS011;3413;47.680;9.166;2023-06-10T19:23:27;7.33;;;2.87;;
6751;SDS011;3413;47.680;9.166;2023-06-10T19:28:30;5.97;;;2.80;;
6751;SDS011;3413;47.680;9.166;2023-06-10T19:33:32;3.93;;;2.30;;
6751;SDS011;3413;47.680;9.166;2023-06-10T19:38:34;4.93;;;2.20;;
6751;SDS011;3413;47.680;9.166;2023-06-10T19:43:36;4.40;;;2.70;;
6751;SDS011;3413;47.680;9.166;2023-06-10T19:48:38;5.10;;;2.77;;
6751;SDS011;3413;47.680;9.166;2023-06-10T19:53:40;5.07;;;3.20;;
6751;SDS011;3413;47.680;9.166;2023-06-10T19:58:42;8.23;;;2.93;;
6751;SDS011;3413;47.680;9.166;2023-06-10T20:03:44;6.60;;;3.10;;
6751;SDS011;3413;47.680;9.166;2023-06-10T20:08:46;5.10;;;2.87;;
6751;SDS011;3413;47.680;9.166;2023-06-10T20:13:48;9.80;;;3.07;;
6751;SDS011;3413;47.680;9.166;2023-06-10T20:18:50;8.90;;;2.47;;
6751;SDS011;3413;47.680;9.166;2023-06-10T20:23:53;5.43;;;2.70;;
6751;SDS011;3413;47.680;9.166;2023-06-10T20:28:55;3.97;;;2.30;;
6751;SDS011;3413;47.680;9.166;2023-06-10T20:33:57;5.37;;;2.67;;
6751;SDS011;3413;47.680;9.166;2023-06-10T20:38:59;4.53;;;2.30;;
6751;SDS011;3413;47.680;9.166;2023-06-10T20:44:01;5.60;;;2.47;;
6751;SDS011;3413;47.680;9.166;2023-06-10T20:49:03;5.43;;;2.37;;
6751;SDS011;3413;47.680;9.166;2023-06-10T20:54:05;4.90;;;2.83;;
6751;SDS011;3413;47.680;9.166;2023-06-10T20:59:07;6.13;;;2.50;;
6751;SDS011;3413;47.680;9.166;2023-06-10T21:04:08;5.60;;;2.70;;
6751;SDS011;3413;47.680;9.166;2023-06-10T21:09:11;5.70;;;2.40;;
6751;SDS011;3413;47.680;9.166;2023-06-10T21:14:13;6.10;;;2.60;;
6751;SDS011;3413;47.680;9.166;2023-06-10T21:19:15;4.50;;;2.40;;
6751;SDS011;3413;47.680;9.166;2023-06-10T21:24:17;5.33;;;2.77;;
6751;SDS011;3413;47.680;9.166;2023-06-10T21:29:19;4.27;;;2.63;;
6751;SDS011;3413;47.680;9.166;2023-06-10T21:34:21;5.90;;;2.50;;
6751;SDS011;3413;47.680;9.166;2023-06-10T21:39:23;4.73;;;2.53;;
6751;SDS011;3413;47.680;9.166;2023-06-10T21:44:25;5.10;;;2.73;;
6751;SDS011;3413;47.680;9.166;2023-06-10T21:49:27;4.03;;;2.20;;
6751;SDS011;3413;47.680;9.166;2023-06-10T21:54:29;5.97;;;2.10;;
6751;SDS011;3413;47.680;9.166;2023-06-10T21:59:31;3.63;;;2.13;;
6751;SDS011;3413;47.680;9.166;2023-06-10T22:04:35;4.73;;;2.70;;
6751;SDS011;3413;47.680;9.166;2023-06-10T22:09:38;7.80;;;2.30;;
6751;SDS011;3413;47.680;9.166;2023-06-10T22:14:47;4.17;;;2.20;;
6751;SDS011;3413;47.680;9.166;2023-06-10T22:19:49;3.63;;;2.30;;
6751;SDS011;3413;47.680;9.166;2023-06-10T22:24:55;5.60;;;2.63;;
6751;SDS011;3413;47.680;9.166;2023-06-10T22:29:58;2.90;;;2.00;;
6751;SDS011;3413;47.680;9.166;2023-06-10T22:34:59;5.03;;;2.00;;
6751;SDS011;3413;47.680;9.166;2023-06-10T22:40:02;3.97;;;2.50;;
6751;SDS011;3413;47.680;9.166;2023-06-10T22:45:05;10.70;;;2.20;;
6751;SDS011;3413;47.680;9.166;2023-06-10T22:50:08;5.10;;;2.37;;
6751;SDS011;3413;47.680;9.166;2023-06-10T22:55:10;3.70;;;2.10;;
6751;SDS011;3413;47.680;9.166;2023-06-10T23:00:13;3.73;;;2.30;;
6751;SDS011;3413;47.680;9.166;2023-06-10T23:05:16;5.90;;;1.90;;
6751;SDS011;3413;47.680;9.166;2023-06-10T23:10:18;4.57;;;2.70;;
6751;SDS011;3413;47.680;9.166;2023-06-10T23:15:20;5.57;;;2.50;;
6751;SDS011;3413;47.680;9.166;2023-06-10T23:20:22;5.77;;;2.47;;
6751;SDS011;3413;47.680;9.166;2023-06-10T23:25:24;6.07;;;2.93;;
6751;SDS011;3413;47.680;9.166;2023-06-10T23:30:26;4.50;;;2.27;;
6751;SDS011;3413;47.680;9.166;2023-06-10T23:35:29;3.83;;;2.60;;
6751;SDS011;3413;47.680;9.166;2023-06-10T23:40:31;3.73;;;2.40;;
6751;SDS011;3413;47.680;9.166;2023-06-10T23:45:33;6.20;;;2.87;;
6751;SDS011;3413;47.680;9.166;2023-06-10T23:50:35;3.57;;;2.43;;
6751;SDS011;3413;47.680;9.166;2023-06-10T23:55:38;5.63;;;3.03;;
